sensor_id;sensor_type;location;lat;lon;timestamp;temperature;humidity
774;DHT22;370;48.810;9.150;2023-02-28T00:00:36;-1.30;1.00
774;DHT22;370;48.810;9.150;2023-02-28T00:03:03;-1.20;1.00
774;DHT22;370;48.810;9.150;2023-02-28T00:05:31;-1.20;1.00
774;DHT22;370;48.810;9.150;2023-02-28T00:07:58;-1.30;1.00
774;DHT22;370;48.810;9.150;2023-02-28T00:10:27;-1.30;1.00
774;DHT22;370;48.810;9.150;2023-02-28T00:12:56;-1.30;1.00
774;DHT22;370;48.810;9.150;2023-02-28T00:15:23;-1.50;1.00
774;DHT22;370;48.810;9.150;2023-02-28T00:17:50;-1.40;1.00
774;DHT22;370;48.810;9.150;2023-02-28T00:20:18;-1.50;1.00
774;DHT22;370;48.810;9.150;2023-02-28T00:22:47;-1.60;1.00
774;DHT22;370;48.810;9.150;2023-02-28T00:25:16;-1.50;1.00
774;DHT22;370;48.810;9.150;2023-02-28T00:27:43;-1.50;1.00
774;DHT22;370;48.810;9.150;2023-02-28T00:30:12;-1.40;1.00
774;DHT22;370;48.810;9.150;2023-02-28T00:32:39;-1.50;1.00
774;DHT22;370;48.810;9.150;2023-02-28T00:35:07;-1.50;1.00
774;DHT22;370;48.810;9.150;2023-02-28T00:37:34;-1.50;1.00
774;DHT22;370;48.810;9.150;2023-02-28T00:40:02;-1.50;1.00
774;DHT22;370;48.810;9.150;2023-02-28T00:42:31;-1.50;1.00
774;DHT22;370;48.810;9.150;2023-02-28T00:44:58;-1.50;1.00
774;DHT22;370;48.810;9.150;2023-02-28T00:47:25;-1.60;1.00
774;DHT22;370;48.810;9.150;2023-02-28T00:49:52;-1.60;1.00
774;DHT22;370;48.810;9.150;2023-02-28T00:52:18;-1.60;1.00
774;DHT22;370;48.810;9.150;2023-02-28T00:54:45;-1.60;1.00
774;DHT22;370;48.810;9.150;2023-02-28T00:57:13;-1.60;1.00
774;DHT22;370;48.810;9.150;2023-02-28T00:59:39;-1.60;1.00
774;DHT22;370;48.810;9.150;2023-02-28T01:02:06;-1.70;1.00
774;DHT22;370;48.810;9.150;2023-02-28T01:04:34;-1.60;1.00
774;DHT22;370;48.810;9.150;2023-02-28T01:07:01;-1.60;1.00
774;DHT22;370;48.810;9.150;2023-02-28T01:09:28;-1.70;1.00
774;DHT22;370;48.810;9.150;2023-02-28T01:11:55;-1.60;1.00
774;DHT22;370;48.810;9.150;2023-02-28T01:14:23;-1.70;1.00
774;DHT22;370;48.810;9.150;2023-02-28T01:16:49;-1.70;1.00
774;DHT22;370;48.810;9.150;2023-02-28T01:19:17;-1.70;1.00
774;DHT22;370;48.810;9.150;2023-02-28T01:21:43;-1.60;1.00
774;DHT22;370;48.810;9.150;2023-02-28T01:24:10;-1.70;1.00
774;DHT22;370;48.810;9.150;2023-02-28T01:26:37;-1.70;1.00
774;DHT22;370;48.810;9.150;2023-02-28T01:29:03;-1.70;1.00
774;DHT22;370;48.810;9.150;2023-02-28T01:31:31;-1.70;1.00
774;DHT22;370;48.810;9.150;2023-02-28T01:33:58;-1.70;1.00
774;DHT22;370;48.810;9.150;2023-02-28T01:36:25;-1.70;1.00
774;DHT22;370;48.810;9.150;2023-02-28T01:38:52;-1.70;1.00
774;DHT22;370;48.810;9.150;2023-02-28T01:41:21;-1.70;1.00
774;DHT22;370;48.810;9.150;2023-02-28T01:43:58;-1.60;1.00
774;DHT22;370;48.810;9.150;2023-02-28T01:46:25;-1.70;1.00
774;DHT22;370;48.810;9.150;2023-02-28T01:49:00;-1.60;1.00
774;DHT22;370;48.810;9.150;2023-02-28T01:51:33;-1.70;1.00
774;DHT22;370;48.810;9.150;2023-02-28T01:54:03;-1.60;1.00
774;DHT22;370;48.810;9.150;2023-02-28T01:56:43;-1.70;1.00
774;DHT22;370;48.810;9.150;2023-02-28T01:59:12;-1.60;1.00
774;DHT22;370;48.810;9.150;2023-02-28T02:01:40;-1.70;1.00
774;DHT22;370;48.810;9.150;2023-02-28T02:04:09;-1.70;1.00
774;DHT22;370;48.810;9.150;2023-02-28T02:06:39;-1.60;1.00
774;DHT22;370;48.810;9.150;2023-02-28T02:09:06;-1.50;1.00
774;DHT22;370;48.810;9.150;2023-02-28T02:11:34;-1.50;1.00
774;DHT22;370;48.810;9.150;2023-02-28T02:14:32;-1.50;1.00
774;DHT22;370;48.810;9.150;2023-02-28T02:17:14;-1.50;1.00
774;DHT22;370;48.810;9.150;2023-02-28T02:23:06;-1.50;1.00
774;DHT22;370;48.810;9.150;2023-02-28T02:25:39;-1.50;1.00
774;DHT22;370;48.810;9.150;2023-02-28T02:28:34;-1.50;1.00
774;DHT22;370;48.810;9.150;2023-02-28T02:37:05;-1.40;1.00
774;DHT22;370;48.810;9.150;2023-02-28T02:39:40;-1.30;1.00
774;DHT22;370;48.810;9.150;2023-02-28T02:42:13;-1.30;1.00
774;DHT22;370;48.810;9.150;2023-02-28T02:44:45;-1.20;1.00
774;DHT22;370;48.810;9.150;2023-02-28T02:47:16;-1.20;1.00
774;DHT22;370;48.810;9.150;2023-02-28T02:49:46;-1.10;1.00
774;DHT22;370;48.810;9.150;2023-02-28T02:52:20;-1.10;1.00
774;DHT22;370;48.810;9.150;2023-02-28T02:54:49;-1.00;1.00
774;DHT22;370;48.810;9.150;2023-02-28T02:57:23;-1.00;1.00
774;DHT22;370;48.810;9.150;2023-02-28T02:59:51;-1.00;1.00
774;DHT22;370;48.810;9.150;2023-02-28T03:02:20;-1.00;1.00
774;DHT22;370;48.810;9.150;2023-02-28T03:04:51;-1.00;1.00
774;DHT22;370;48.810;9.150;2023-02-28T03:07:20;-1.00;1.00
774;DHT22;370;48.810;9.150;2023-02-28T03:09:51;-0.90;1.00
774;DHT22;370;48.810;9.150;2023-02-28T03:12:18;-0.90;1.00
774;DHT22;370;48.810;9.150;2023-02-28T03:14:56;-0.90;1.00
774;DHT22;370;48.810;9.150;2023-02-28T03:17:35;-0.80;1.00
774;DHT22;370;48.810;9.150;2023-02-28T03:20:13;-0.80;1.00
774;DHT22;370;48.810;9.150;2023-02-28T03:22:51;-0.70;1.00
774;DHT22;370;48.810;9.150;2023-02-28T03:25:23;-0.70;1.00
774;DHT22;370;48.810;9.150;2023-02-28T03:27:59;-0.70;1.00
774;DHT22;370;48.810;9.150;2023-02-28T03:30:35;-0.70;1.00
774;DHT22;370;48.810;9.150;2023-02-28T03:33:06;-0.70;1.00
774;DHT22;370;48.810;9.150;2023-02-28T03:35:37;-0.60;1.00
774;DHT22;370;48.810;9.150;2023-02-28T03:38:11;-0.60;1.00
774;DHT22;370;48.810;9.150;2023-02-28T03:40:44;-0.60;1.00
774;DHT22;370;48.810;9.150;2023-02-28T03:43:18;-0.60;1.00
774;DHT22;370;48.810;9.150;2023-02-28T03:45:46;-0.60;1.00
774;DHT22;370;48.810;9.150;2023-02-28T03:48:22;-0.60;1.00
774;DHT22;370;48.810;9.150;2023-02-28T03:50:53;-0.60;1.00
774;DHT22;370;48.810;9.150;2023-02-28T03:53:27;-0.50;1.00
774;DHT22;370;48.810;9.150;2023-02-28T03:55:56;-0.50;1.00
774;DHT22;370;48.810;9.150;2023-02-28T03:58:30;-0.40;1.00
774;DHT22;370;48.810;9.150;2023-02-28T04:01:03;-0.40;1.00
774;DHT22;370;48.810;9.150;2023-02-28T04:03:34;-0.40;1.00
774;DHT22;370;48.810;9.150;2023-02-28T04:06:01;-0.30;1.00
774;DHT22;370;48.810;9.150;2023-02-28T04:08:29;-0.30;1.00
774;DHT22;370;48.810;9.150;2023-02-28T04:11:00;-0.30;1.00
774;DHT22;370;48.810;9.150;2023-02-28T04:13:28;-0.30;1.00
774;DHT22;370;48.810;9.150;2023-02-28T04:15:54;-0.30;1.00
774;DHT22;370;48.810;9.150;2023-02-28T04:18:21;-0.30;1.00
774;DHT22;370;48.810;9.150;2023-02-28T04:20:48;-0.20;1.00
774;DHT22;370;48.810;9.150;2023-02-28T04:23:14;-0.20;1.00
774;DHT22;370;48.810;9.150;2023-02-28T04:25:42;-0.20;1.00
774;DHT22;370;48.810;9.150;2023-02-28T04:28:09;-0.20;1.00
774;DHT22;370;48.810;9.150;2023-02-28T04:30:37;-0.20;1.00
774;DHT22;370;48.810;9.150;2023-02-28T04:33:04;-0.10;1.00
774;DHT22;370;48.810;9.150;2023-02-28T04:35:31;-0.10;1.00
774;DHT22;370;48.810;9.150;2023-02-28T04:37:58;0.00;1.00
774;DHT22;370;48.810;9.150;2023-02-28T04:40:24;0.00;1.00
774;DHT22;370;48.810;9.150;2023-02-28T04:42:52;0.00;1.00
774;DHT22;370;48.810;9.150;2023-02-28T04:45:19;0.10;1.00
774;DHT22;370;48.810;9.150;2023-02-28T04:47:45;0.10;1.00
774;DHT22;370;48.810;9.150;2023-02-28T04:50:12;0.10;1.00
774;DHT22;370;48.810;9.150;2023-02-28T04:52:39;0.10;1.00
774;DHT22;370;48.810;9.150;2023-02-28T04:55:06;0.10;1.00
774;DHT22;370;48.810;9.150;2023-02-28T04:57:33;0.10;1.00
774;DHT22;370;48.810;9.150;2023-02-28T05:00:01;0.10;1.00
774;DHT22;370;48.810;9.150;2023-02-28T05:02:34;0.00;1.00
774;DHT22;370;48.810;9.150;2023-02-28T05:05:00;0.10;1.00
774;DHT22;370;48.810;9.150;2023-02-28T05:07:27;0.00;1.00
774;DHT22;370;48.810;9.150;2023-02-28T05:09:54;0.00;1.00
774;DHT22;370;48.810;9.150;2023-02-28T05:12:21;0.10;1.00
774;DHT22;370;48.810;9.150;2023-02-28T05:14:47;0.00;1.00
774;DHT22;370;48.810;9.150;2023-02-28T05:17:15;0.10;1.00
774;DHT22;370;48.810;9.150;2023-02-28T05:19:42;0.10;1.00
774;DHT22;370;48.810;9.150;2023-02-28T05:22:13;0.10;1.00
774;DHT22;370;48.810;9.150;2023-02-28T05:24:41;0.10;1.00
774;DHT22;370;48.810;9.150;2023-02-28T05:27:08;0.10;1.00
774;DHT22;370;48.810;9.150;2023-02-28T05:29:35;0.10;1.00
774;DHT22;370;48.810;9.150;2023-02-28T05:32:08;0.20;1.00
774;DHT22;370;48.810;9.150;2023-02-28T05:34:36;0.30;1.00
774;DHT22;370;48.810;9.150;2023-02-28T05:37:03;0.20;1.00
774;DHT22;370;48.810;9.150;2023-02-28T05:39:29;0.20;1.00
774;DHT22;370;48.810;9.150;2023-02-28T05:41:56;0.20;1.00
774;DHT22;370;48.810;9.150;2023-02-28T05:44:23;0.20;1.00
774;DHT22;370;48.810;9.150;2023-02-28T05:46:50;0.20;1.00
774;DHT22;370;48.810;9.150;2023-02-28T05:49:16;0.20;1.00
774;DHT22;370;48.810;9.150;2023-02-28T05:51:44;0.20;1.00
774;DHT22;370;48.810;9.150;2023-02-28T05:54:11;0.20;1.00
774;DHT22;370;48.810;9.150;2023-02-28T05:56:38;0.20;1.00
774;DHT22;370;48.810;9.150;2023-02-28T05:59:06;0.20;1.00
774;DHT22;370;48.810;9.150;2023-02-28T06:01:34;0.20;1.00
774;DHT22;370;48.810;9.150;2023-02-28T06:04:02;0.20;1.00
774;DHT22;370;48.810;9.150;2023-02-28T06:06:29;0.20;1.00
774;DHT22;370;48.810;9.150;2023-02-28T06:08:57;0.20;1.00
774;DHT22;370;48.810;9.150;2023-02-28T06:11:24;0.20;1.00
774;DHT22;370;48.810;9.150;2023-02-28T06:13:53;0.20;1.00
774;DHT22;370;48.810;9.150;2023-02-28T06:16:21;0.20;1.00
774;DHT22;370;48.810;9.150;2023-02-28T06:18:48;0.20;1.00
774;DHT22;370;48.810;9.150;2023-02-28T06:21:14;0.20;1.00
774;DHT22;370;48.810;9.150;2023-02-28T06:23:41;0.30;1.00
774;DHT22;370;48.810;9.150;2023-02-28T06:26:09;0.30;1.00
774;DHT22;370;48.810;9.150;2023-02-28T06:28:36;0.30;1.00
774;DHT22;370;48.810;9.150;2023-02-28T06:31:08;0.30;1.00
774;DHT22;370;48.810;9.150;2023-02-28T06:33:35;0.40;1.00
774;DHT22;370;48.810;9.150;2023-02-28T06:36:02;0.30;1.00
774;DHT22;370;48.810;9.150;2023-02-28T06:38:28;0.40;1.00
774;DHT22;370;48.810;9.150;2023-02-28T06:40:56;0.40;1.00
774;DHT22;370;48.810;9.150;2023-02-28T06:43:25;0.50;1.00
774;DHT22;370;48.810;9.150;2023-02-28T06:45:54;0.60;1.00
774;DHT22;370;48.810;9.150;2023-02-28T06:48:21;0.60;1.00
774;DHT22;370;48.810;9.150;2023-02-28T06:50:48;0.60;1.00
774;DHT22;370;48.810;9.150;2023-02-28T06:53:14;0.60;1.00
774;DHT22;370;48.810;9.150;2023-02-28T06:55:41;0.60;1.00
774;DHT22;370;48.810;9.150;2023-02-28T06:58:08;0.60;1.00
774;DHT22;370;48.810;9.150;2023-02-28T07:00:41;0.70;1.00
774;DHT22;370;48.810;9.150;2023-02-28T07:03:09;0.70;1.00
774;DHT22;370;48.810;9.150;2023-02-28T07:05:36;0.70;1.00
774;DHT22;370;48.810;9.150;2023-02-28T07:08:04;0.70;1.00
774;DHT22;370;48.810;9.150;2023-02-28T07:10:31;0.70;1.00
774;DHT22;370;48.810;9.150;2023-02-28T07:12:58;0.70;1.00
774;DHT22;370;48.810;9.150;2023-02-28T07:15:25;0.80;1.00
774;DHT22;370;48.810;9.150;2023-02-28T07:17:53;0.80;1.00
774;DHT22;370;48.810;9.150;2023-02-28T07:20:19;0.80;1.00
774;DHT22;370;48.810;9.150;2023-02-28T07:22:46;0.90;1.00
774;DHT22;370;48.810;9.150;2023-02-28T07:25:20;1.00;1.00
774;DHT22;370;48.810;9.150;2023-02-28T07:27:47;1.10;1.00
774;DHT22;370;48.810;9.150;2023-02-28T07:30:14;1.00;1.00
774;DHT22;370;48.810;9.150;2023-02-28T07:32:41;1.10;1.00
774;DHT22;370;48.810;9.150;2023-02-28T07:35:09;1.10;1.00
774;DHT22;370;48.810;9.150;2023-02-28T07:37:36;1.20;1.00
774;DHT22;370;48.810;9.150;2023-02-28T07:40:03;1.20;1.00
774;DHT22;370;48.810;9.150;2023-02-28T07:42:33;1.20;1.00
774;DHT22;370;48.810;9.150;2023-02-28T07:45:00;1.10;1.00
774;DHT22;370;48.810;9.150;2023-02-28T07:47:28;1.10;1.00
774;DHT22;370;48.810;9.150;2023-02-28T07:49:55;1.20;1.00
774;DHT22;370;48.810;9.150;2023-02-28T07:52:24;1.30;1.00
774;DHT22;370;48.810;9.150;2023-02-28T07:54:50;1.30;1.00
774;DHT22;370;48.810;9.150;2023-02-28T07:57:17;1.30;1.00
774;DHT22;370;48.810;9.150;2023-02-28T07:59:44;1.40;1.00
774;DHT22;370;48.810;9.150;2023-02-28T08:02:13;1.50;1.00
774;DHT22;370;48.810;9.150;2023-02-28T08:04:40;1.40;1.00
774;DHT22;370;48.810;9.150;2023-02-28T08:07:06;1.50;1.00
774;DHT22;370;48.810;9.150;2023-02-28T08:09:35;1.60;1.00
774;DHT22;370;48.810;9.150;2023-02-28T08:12:01;1.50;1.00
774;DHT22;370;48.810;9.150;2023-02-28T08:14:28;1.50;1.00
774;DHT22;370;48.810;9.150;2023-02-28T08:16:55;1.50;1.00
774;DHT22;370;48.810;9.150;2023-02-28T08:19:22;1.60;1.00
774;DHT22;370;48.810;9.150;2023-02-28T08:21:48;1.70;1.00
774;DHT22;370;48.810;9.150;2023-02-28T08:24:15;1.80;1.00
774;DHT22;370;48.810;9.150;2023-02-28T08:26:43;1.90;1.00
774;DHT22;370;48.810;9.150;2023-02-28T08:29:10;1.90;1.00
774;DHT22;370;48.810;9.150;2023-02-28T08:31:37;2.00;1.00
774;DHT22;370;48.810;9.150;2023-02-28T08:34:05;1.90;1.00
774;DHT22;370;48.810;9.150;2023-02-28T08:36:32;1.90;1.00
774;DHT22;370;48.810;9.150;2023-02-28T08:38:59;2.00;1.00
774;DHT22;370;48.810;9.150;2023-02-28T08:41:26;2.10;1.00
774;DHT22;370;48.810;9.150;2023-02-28T08:43:54;2.10;1.00
774;DHT22;370;48.810;9.150;2023-02-28T08:46:21;2.10;1.00
774;DHT22;370;48.810;9.150;2023-02-28T08:48:52;2.10;1.00
774;DHT22;370;48.810;9.150;2023-02-28T08:51:19;2.20;1.00
774;DHT22;370;48.810;9.150;2023-02-28T08:53:51;2.30;1.00
774;DHT22;370;48.810;9.150;2023-02-28T08:56:19;2.40;1.00
774;DHT22;370;48.810;9.150;2023-02-28T08:58:47;2.40;1.00
774;DHT22;370;48.810;9.150;2023-02-28T09:01:17;2.50;1.00
774;DHT22;370;48.810;9.150;2023-02-28T09:03:45;2.60;1.00
774;DHT22;370;48.810;9.150;2023-02-28T09:06:13;2.70;1.00
774;DHT22;370;48.810;9.150;2023-02-28T09:08:40;2.80;1.00
774;DHT22;370;48.810;9.150;2023-02-28T09:11:08;2.90;1.00
774;DHT22;370;48.810;9.150;2023-02-28T09:13:35;3.00;1.00
774;DHT22;370;48.810;9.150;2023-02-28T09:16:04;3.10;1.00
774;DHT22;370;48.810;9.150;2023-02-28T09:18:33;3.20;1.00
774;DHT22;370;48.810;9.150;2023-02-28T09:21:03;3.20;1.00
774;DHT22;370;48.810;9.150;2023-02-28T09:23:30;3.00;1.00
774;DHT22;370;48.810;9.150;2023-02-28T09:25:57;3.00;1.00
774;DHT22;370;48.810;9.150;2023-02-28T09:28:24;3.20;1.00
774;DHT22;370;48.810;9.150;2023-02-28T09:30:52;3.10;1.00
774;DHT22;370;48.810;9.150;2023-02-28T09:33:20;3.20;1.00
774;DHT22;370;48.810;9.150;2023-02-28T09:35:49;3.50;1.00
774;DHT22;370;48.810;9.150;2023-02-28T09:38:16;3.50;1.00
774;DHT22;370;48.810;9.150;2023-02-28T09:40:48;3.40;1.00
774;DHT22;370;48.810;9.150;2023-02-28T09:43:17;3.50;1.00
774;DHT22;370;48.810;9.150;2023-02-28T09:45:48;3.70;1.00
774;DHT22;370;48.810;9.150;2023-02-28T09:48:19;3.60;1.00
774;DHT22;370;48.810;9.150;2023-02-28T09:50:51;3.70;1.00
774;DHT22;370;48.810;9.150;2023-02-28T09:53:22;3.70;1.00
774;DHT22;370;48.810;9.150;2023-02-28T09:55:55;3.80;1.00
774;DHT22;370;48.810;9.150;2023-02-28T09:58:28;3.90;1.00
774;DHT22;370;48.810;9.150;2023-02-28T10:01:03;4.00;1.00
774;DHT22;370;48.810;9.150;2023-02-28T10:03:36;4.00;1.00
774;DHT22;370;48.810;9.150;2023-02-28T10:06:12;4.20;1.00
774;DHT22;370;48.810;9.150;2023-02-28T10:08:44;4.40;1.00
774;DHT22;370;48.810;9.150;2023-02-28T10:11:15;4.70;1.00
774;DHT22;370;48.810;9.150;2023-02-28T10:13:51;4.50;1.00
774;DHT22;370;48.810;9.150;2023-02-28T10:16:25;4.90;1.00
774;DHT22;370;48.810;9.150;2023-02-28T10:18:59;5.60;1.00
774;DHT22;370;48.810;9.150;2023-02-28T10:21:34;6.00;1.00
774;DHT22;370;48.810;9.150;2023-02-28T10:24:05;6.10;1.00
774;DHT22;370;48.810;9.150;2023-02-28T10:26:36;5.90;1.00
774;DHT22;370;48.810;9.150;2023-02-28T10:29:03;6.20;1.00
774;DHT22;370;48.810;9.150;2023-02-28T10:31:30;6.00;1.00
774;DHT22;370;48.810;9.150;2023-02-28T10:33:56;6.40;1.00
774;DHT22;370;48.810;9.150;2023-02-28T10:36:23;6.80;1.00
774;DHT22;370;48.810;9.150;2023-02-28T10:38:51;6.90;1.00
774;DHT22;370;48.810;9.150;2023-02-28T10:41:28;6.90;1.00
774;DHT22;370;48.810;9.150;2023-02-28T10:44:13;7.20;1.00
774;DHT22;370;48.810;9.150;2023-02-28T10:46:41;7.00;1.00
774;DHT22;370;48.810;9.150;2023-02-28T10:49:15;7.40;1.00
774;DHT22;370;48.810;9.150;2023-02-28T10:51:44;7.60;1.00
774;DHT22;370;48.810;9.150;2023-02-28T10:54:19;8.30;1.00
774;DHT22;370;48.810;9.150;2023-02-28T10:57:06;9.30;1.00
774;DHT22;370;48.810;9.150;2023-02-28T10:59:34;10.00;1.00
774;DHT22;370;48.810;9.150;2023-02-28T11:02:01;9.80;1.00
774;DHT22;370;48.810;9.150;2023-02-28T11:04:37;11.30;1.00
774;DHT22;370;48.810;9.150;2023-02-28T11:07:10;12.40;1.00
774;DHT22;370;48.810;9.150;2023-02-28T11:09:46;12.80;1.00
774;DHT22;370;48.810;9.150;2023-02-28T11:12:21;14.40;1.00
774;DHT22;370;48.810;9.150;2023-02-28T11:14:50;17.00;1.00
774;DHT22;370;48.810;9.150;2023-02-28T11:17:21;18.90;1.00
774;DHT22;370;48.810;9.150;2023-02-28T11:19:51;20.30;1.00
774;DHT22;370;48.810;9.150;2023-02-28T11:22:19;20.20;1.00
774;DHT22;370;48.810;9.150;2023-02-28T11:24:51;21.30;1.00
774;DHT22;370;48.810;9.150;2023-02-28T11:27:44;21.30;1.00
774;DHT22;370;48.810;9.150;2023-02-28T11:30:31;20.50;1.00
774;DHT22;370;48.810;9.150;2023-02-28T11:32:59;21.00;1.00
774;DHT22;370;48.810;9.150;2023-02-28T11:35:29;22.10;1.00
774;DHT22;370;48.810;9.150;2023-02-28T11:37:57;23.80;1.00
774;DHT22;370;48.810;9.150;2023-02-28T11:40:31;24.50;1.00
774;DHT22;370;48.810;9.150;2023-02-28T11:43:11;22.00;1.00
774;DHT22;370;48.810;9.150;2023-02-28T11:46:04;21.80;1.00
774;DHT22;370;48.810;9.150;2023-02-28T11:48:41;21.40;1.00
774;DHT22;370;48.810;9.150;2023-02-28T11:51:15;21.60;1.00
774;DHT22;370;48.810;9.150;2023-02-28T11:54:04;22.90;1.00
774;DHT22;370;48.810;9.150;2023-02-28T11:56:39;22.30;1.00
774;DHT22;370;48.810;9.150;2023-02-28T11:59:35;20.90;1.00
774;DHT22;370;48.810;9.150;2023-02-28T12:02:26;20.30;1.00
774;DHT22;370;48.810;9.150;2023-02-28T12:05:11;21.60;1.00
774;DHT22;370;48.810;9.150;2023-02-28T12:07:50;21.60;1.00
774;DHT22;370;48.810;9.150;2023-02-28T12:10:23;21.20;1.00
774;DHT22;370;48.810;9.150;2023-02-28T12:13:05;20.30;1.00
774;DHT22;370;48.810;9.150;2023-02-28T12:15:53;22.50;1.00
774;DHT22;370;48.810;9.150;2023-02-28T12:18:31;24.30;1.00
774;DHT22;370;48.810;9.150;2023-02-28T12:21:04;24.90;1.00
774;DHT22;370;48.810;9.150;2023-02-28T12:24:00;25.70;1.00
774;DHT22;370;48.810;9.150;2023-02-28T12:26:37;26.60;1.00
774;DHT22;370;48.810;9.150;2023-02-28T12:29:12;26.70;1.00
774;DHT22;370;48.810;9.150;2023-02-28T12:31:45;26.20;1.00
774;DHT22;370;48.810;9.150;2023-02-28T12:34:18;24.90;1.00
774;DHT22;370;48.810;9.150;2023-02-28T12:36:47;23.00;1.00
774;DHT22;370;48.810;9.150;2023-02-28T12:39:18;22.70;1.00
774;DHT22;370;48.810;9.150;2023-02-28T12:41:51;24.20;1.00
774;DHT22;370;48.810;9.150;2023-02-28T12:44:23;24.90;1.00
774;DHT22;370;48.810;9.150;2023-02-28T12:46:56;26.40;1.00
774;DHT22;370;48.810;9.150;2023-02-28T12:49:29;27.50;1.00
774;DHT22;370;48.810;9.150;2023-02-28T12:51:57;25.60;1.00
774;DHT22;370;48.810;9.150;2023-02-28T12:54:30;26.10;1.00
774;DHT22;370;48.810;9.150;2023-02-28T12:57:05;26.70;1.00
774;DHT22;370;48.810;9.150;2023-02-28T12:59:39;25.30;1.00
774;DHT22;370;48.810;9.150;2023-02-28T13:05:28;24.90;1.00
774;DHT22;370;48.810;9.150;2023-02-28T13:08:20;22.20;1.00
774;DHT22;370;48.810;9.150;2023-02-28T13:10:51;19.80;1.00
774;DHT22;370;48.810;9.150;2023-02-28T13:13:21;17.80;1.00
774;DHT22;370;48.810;9.150;2023-02-28T13:16:04;16.70;1.00
774;DHT22;370;48.810;9.150;2023-02-28T13:18:35;15.30;1.00
774;DHT22;370;48.810;9.150;2023-02-28T13:21:03;13.60;1.00
774;DHT22;370;48.810;9.150;2023-02-28T13:23:55;12.10;1.00
774;DHT22;370;48.810;9.150;2023-02-28T13:29:31;11.10;1.00
774;DHT22;370;48.810;9.150;2023-02-28T13:32:32;10.80;1.00
774;DHT22;370;48.810;9.150;2023-02-28T13:35:37;10.30;1.00
774;DHT22;370;48.810;9.150;2023-02-28T13:38:37;9.70;1.00
774;DHT22;370;48.810;9.150;2023-02-28T13:41:40;9.30;1.00
774;DHT22;370;48.810;9.150;2023-02-28T13:44:08;9.20;1.00
774;DHT22;370;48.810;9.150;2023-02-28T13:50:14;8.80;1.00
774;DHT22;370;48.810;9.150;2023-02-28T13:52:47;8.70;1.00
774;DHT22;370;48.810;9.150;2023-02-28T13:55:25;8.80;1.00
774;DHT22;370;48.810;9.150;2023-02-28T13:58:03;8.90;1.00
774;DHT22;370;48.810;9.150;2023-02-28T14:00:46;8.80;1.00
774;DHT22;370;48.810;9.150;2023-02-28T14:03:46;8.60;1.00
774;DHT22;370;48.810;9.150;2023-02-28T14:06:21;8.50;1.00
774;DHT22;370;48.810;9.150;2023-02-28T14:08:54;8.40;1.00
774;DHT22;370;48.810;9.150;2023-02-28T14:11:28;8.20;1.00
774;DHT22;370;48.810;9.150;2023-02-28T14:13:57;8.00;1.00
774;DHT22;370;48.810;9.150;2023-02-28T14:16:38;7.90;1.00
774;DHT22;370;48.810;9.150;2023-02-28T14:19:12;8.00;1.00
774;DHT22;370;48.810;9.150;2023-02-28T14:21:51;7.90;1.00
774;DHT22;370;48.810;9.150;2023-02-28T14:27:28;7.80;1.00
774;DHT22;370;48.810;9.150;2023-02-28T14:33:14;7.60;1.00
774;DHT22;370;48.810;9.150;2023-02-28T14:35:57;7.70;1.00
774;DHT22;370;48.810;9.150;2023-02-28T14:38:30;7.80;1.00
774;DHT22;370;48.810;9.150;2023-02-28T14:41:02;7.70;1.00
774;DHT22;370;48.810;9.150;2023-02-28T14:43:29;7.80;1.00
774;DHT22;370;48.810;9.150;2023-02-28T14:45:58;7.80;1.00
774;DHT22;370;48.810;9.150;2023-02-28T14:48:26;7.70;1.00
774;DHT22;370;48.810;9.150;2023-02-28T14:50:55;7.70;1.00
774;DHT22;370;48.810;9.150;2023-02-28T14:53:25;7.70;1.00
774;DHT22;370;48.810;9.150;2023-02-28T14:55:54;7.70;1.00
774;DHT22;370;48.810;9.150;2023-02-28T14:58:23;7.60;1.00
774;DHT22;370;48.810;9.150;2023-02-28T15:00:52;7.50;1.00
774;DHT22;370;48.810;9.150;2023-02-28T15:03:21;7.50;1.00
774;DHT22;370;48.810;9.150;2023-02-28T15:05:54;7.40;1.00
774;DHT22;370;48.810;9.150;2023-02-28T15:08:21;7.40;1.00
774;DHT22;370;48.810;9.150;2023-02-28T15:10:54;7.30;1.00
774;DHT22;370;48.810;9.150;2023-02-28T15:13:22;7.20;1.00
774;DHT22;370;48.810;9.150;2023-02-28T15:15:53;7.20;1.00
774;DHT22;370;48.810;9.150;2023-02-28T15:18:26;7.20;1.00
774;DHT22;370;48.810;9.150;2023-02-28T15:20:55;7.20;1.00
774;DHT22;370;48.810;9.150;2023-02-28T15:23:23;7.10;1.00
774;DHT22;370;48.810;9.150;2023-02-28T15:25:50;7.10;1.00
774;DHT22;370;48.810;9.150;2023-02-28T15:28:20;7.00;1.00
774;DHT22;370;48.810;9.150;2023-02-28T15:30:54;6.90;1.00
774;DHT22;370;48.810;9.150;2023-02-28T15:33:22;6.90;1.00
774;DHT22;370;48.810;9.150;2023-02-28T15:35:50;6.90;1.00
774;DHT22;370;48.810;9.150;2023-02-28T15:38:23;7.00;1.00
774;DHT22;370;48.810;9.150;2023-02-28T15:40:51;7.10;1.00
774;DHT22;370;48.810;9.150;2023-02-28T15:43:27;7.10;1.00
774;DHT22;370;48.810;9.150;2023-02-28T15:45:57;7.00;1.00
774;DHT22;370;48.810;9.150;2023-02-28T15:48:27;6.80;1.00
774;DHT22;370;48.810;9.150;2023-02-28T15:50:56;6.70;1.00
774;DHT22;370;48.810;9.150;2023-02-28T15:53:27;6.80;1.00
774;DHT22;370;48.810;9.150;2023-02-28T15:56:00;6.80;1.00
774;DHT22;370;48.810;9.150;2023-02-28T15:58:29;6.80;1.00
774;DHT22;370;48.810;9.150;2023-02-28T16:01:08;6.80;1.00
774;DHT22;370;48.810;9.150;2023-02-28T16:03:45;6.80;1.00
774;DHT22;370;48.810;9.150;2023-02-28T16:06:32;6.70;1.00
774;DHT22;370;48.810;9.150;2023-02-28T16:09:00;6.70;1.00
774;DHT22;370;48.810;9.150;2023-02-28T16:11:26;6.60;1.00
774;DHT22;370;48.810;9.150;2023-02-28T16:13:55;6.50;1.00
774;DHT22;370;48.810;9.150;2023-02-28T16:16:24;6.50;1.00
774;DHT22;370;48.810;9.150;2023-02-28T16:18:51;6.40;1.00
774;DHT22;370;48.810;9.150;2023-02-28T16:21:18;6.30;1.00
774;DHT22;370;48.810;9.150;2023-02-28T16:23:45;6.20;1.00
774;DHT22;370;48.810;9.150;2023-02-28T16:26:19;6.00;1.00
774;DHT22;370;48.810;9.150;2023-02-28T16:28:47;6.00;1.00
774;DHT22;370;48.810;9.150;2023-02-28T16:31:16;5.90;1.00
774;DHT22;370;48.810;9.150;2023-02-28T16:33:44;5.80;1.00
774;DHT22;370;48.810;9.150;2023-02-28T16:36:15;5.70;1.00
774;DHT22;370;48.810;9.150;2023-02-28T16:38:42;5.60;1.00
774;DHT22;370;48.810;9.150;2023-02-28T16:41:12;5.50;1.00
774;DHT22;370;48.810;9.150;2023-02-28T16:43:44;5.50;1.00
774;DHT22;370;48.810;9.150;2023-02-28T16:46:12;5.40;1.00
774;DHT22;370;48.810;9.150;2023-02-28T16:48:40;5.30;1.00
774;DHT22;370;48.810;9.150;2023-02-28T16:51:11;5.20;1.00
774;DHT22;370;48.810;9.150;2023-02-28T16:53:38;5.20;1.00
774;DHT22;370;48.810;9.150;2023-02-28T16:56:05;5.10;1.00
774;DHT22;370;48.810;9.150;2023-02-28T16:58:33;4.90;1.00
774;DHT22;370;48.810;9.150;2023-02-28T17:01:01;4.90;1.00
774;DHT22;370;48.810;9.150;2023-02-28T17:03:28;4.80;1.00
774;DHT22;370;48.810;9.150;2023-02-28T17:05:56;4.70;1.00
774;DHT22;370;48.810;9.150;2023-02-28T17:08:23;4.50;1.00
774;DHT22;370;48.810;9.150;2023-02-28T17:10:50;4.50;1.00
774;DHT22;370;48.810;9.150;2023-02-28T17:13:16;4.40;1.00
774;DHT22;370;48.810;9.150;2023-02-28T17:15:44;4.30;1.00
774;DHT22;370;48.810;9.150;2023-02-28T17:18:14;4.30;1.00
774;DHT22;370;48.810;9.150;2023-02-28T17:20:41;4.20;1.00
774;DHT22;370;48.810;9.150;2023-02-28T17:23:09;4.10;1.00
774;DHT22;370;48.810;9.150;2023-02-28T17:25:36;4.00;1.00
774;DHT22;370;48.810;9.150;2023-02-28T17:28:03;3.80;1.00
774;DHT22;370;48.810;9.150;2023-02-28T17:30:33;3.80;1.00
774;DHT22;370;48.810;9.150;2023-02-28T17:33:00;3.70;1.00
774;DHT22;370;48.810;9.150;2023-02-28T17:35:27;3.60;1.00
774;DHT22;370;48.810;9.150;2023-02-28T17:37:54;3.50;1.00
774;DHT22;370;48.810;9.150;2023-02-28T17:40:23;3.50;1.00
774;DHT22;370;48.810;9.150;2023-02-28T17:42:50;3.50;1.00
774;DHT22;370;48.810;9.150;2023-02-28T17:45:18;3.40;1.00
774;DHT22;370;48.810;9.150;2023-02-28T17:47:47;3.30;1.00
774;DHT22;370;48.810;9.150;2023-02-28T17:50:17;3.30;1.00